Aviation Digital Data Service (ADDS)

Output produced by METARs form (1231 UTC 26 March 2019)
found at http://www.aviationweather.gov/metar/data/
 
GLRB 261200Z 25005KT 9999 BKN020 32/24 Q1012 NOSIG